Time;durP1;ratioP1;P1;durP2;ratioP2;P2;SDS_P1;SDS_P2;PMS_P1;PMS_P2;Temp;Humidity;BMP_temperature;BMP_pressure;BME280_temperature;BME280_humidity;BME280_pressure;Samples;Min_cycle;Max_cycle;Signal;HPM_P1;HPM_P2
2022/09/02 00:03:57;;;;;;;;;;;;;;;22.94;49.02;95773.88;10238928;28;2942;-51
2022/09/02 00:08:58;;;;;;;;;;;;;;;22.92;48.91;95768.88;10245256;28;2842;-54
2022/09/02 00:14:01;;;;;;;;;;;;;;;22.94;48.91;95765.94;10248089;28;2502;-50
2022/09/02 00:19:01;;;;;;;;;;;;;;;22.92;49.06;95758.31;10248332;28;2268;-53
2022/09/02 00:24:03;;;;;;;;;;;;;;;22.91;49.01;95755.97;10243314;28;3028;-54
2022/09/02 00:29:03;;;;;;;;;;;;;;;22.92;48.88;95757.53;10245638;28;2374;-50
2022/09/02 00:34:04;;;;;;;;;;;;;;;22.91;48.82;95755.97;10248463;28;2829;-51
2022/09/02 00:39:06;;;;;;;;;;;;;;;22.92;48.75;95754.88;10241547;28;2857;-50
2022/09/02 00:44:08;;;;;;;;;;;;;;;22.90;48.90;95749.91;10243512;28;2301;-50
2022/09/02 00:49:23;;;;;;;;;;;;;;;22.91;48.78;95748.03;10242093;28;2896;-51
2022/09/02 00:54:24;;;;;;;;;;;;;;;22.90;48.78;95743.81;10242249;28;2266;-50
2022/09/02 00:59:50;;;;;;;;;;;;;;;22.90;48.77;95746.47;10249229;28;2946;-54
2022/09/02 01:04:52;;;;;;;;;;;;;;;22.89;48.63;95731.69;10238065;28;2882;-53
2022/09/02 01:09:54;;;;;;;;;;;;;;;22.89;48.62;95739.63;10240971;28;2270;-49
2022/09/02 01:14:55;;;;;;;;;;;;;;;22.88;48.63;95740.66;10248009;28;2953;-52
2022/09/02 01:19:56;;;;;;;;;;;;;;;22.88;48.98;95738.81;10243898;28;2402;-49
2022/09/02 01:25:04;;;;;;;;;;;;;;;22.89;48.98;95739.63;10241777;28;2325;-49
2022/09/02 01:30:04;;;;;;;;;;;;;;;22.88;48.66;95741.47;10244697;28;2945;-51
2022/09/02 01:35:05;;;;;;;;;;;;;;;22.88;48.51;95740.66;10245294;28;2852;-54
2022/09/02 01:40:06;;;;;;;;;;;;;;;22.87;48.60;95728.53;10240129;28;2839;-52
2022/09/02 01:45:07;;;;;;;;;;;;;;;22.88;48.58;95730.09;10237023;28;2313;-52
2022/09/02 01:50:08;;;;;;;;;;;;;;;22.86;48.51;95719.81;10266743;28;2899;-50
2022/09/02 01:55:09;;;;;;;;;;;;;;;22.86;48.67;95717.19;10244450;28;2341;-50
2022/09/02 02:00:10;;;;;;;;;;;;;;;22.86;48.67;95716.38;10243002;28;2958;-49
2022/09/02 02:05:15;;;;;;;;;;;;;;;22.86;48.45;95713.75;10243021;28;2282;-51
2022/09/02 02:10:15;;;;;;;;;;;;;;;22.85;48.68;95715.63;10238522;28;2843;-52
2022/09/02 02:15:16;;;;;;;;;;;;;;;22.85;48.65;95709.53;10241916;28;2368;-53
2022/09/02 02:20:17;;;;;;;;;;;;;;;22.85;48.36;95714.84;10241553;28;2913;-50
2022/09/02 02:25:17;;;;;;;;;;;;;;;22.84;48.45;95710.59;10242440;28;2320;-51
2022/09/02 02:30:21;;;;;;;;;;;;;;;22.83;48.29;95709.06;10249410;28;2973;-49
2022/09/02 02:35:22;;;;;;;;;;;;;;;22.82;48.38;95713.53;10242002;28;2437;-50
2022/09/02 02:40:23;;;;;;;;;;;;;;;22.83;48.19;95709.84;10242063;28;2942;-52
2022/09/02 02:45:23;;;;;;;;;;;;;;;22.82;48.14;95702.19;10242282;28;2969;-50
2022/09/02 02:50:24;;;;;;;;;;;;;;;22.83;48.28;95701.13;10244020;28;2928;-49
2022/09/02 02:55:24;;;;;;;;;;;;;;;22.81;48.13;95701.41;10238265;28;3022;-52
2022/09/02 03:00:26;;;;;;;;;;;;;;;22.83;48.17;95698.47;10238571;28;2897;-51
2022/09/02 03:05:27;;;;;;;;;;;;;;;22.82;48.15;95694.25;10240051;28;2839;-53
2022/09/02 03:10:27;;;;;;;;;;;;;;;22.82;48.17;95689.75;10242504;28;2841;-52
2022/09/02 03:15:29;;;;;;;;;;;;;;;22.81;48.15;95687.41;10245315;28;2977;-53
2022/09/02 03:20:30;;;;;;;;;;;;;;;22.80;48.13;95691.91;10247411;28;2908;-50
2022/09/02 03:25:30;;;;;;;;;;;;;;;22.81;48.28;95685.56;10248900;28;2922;-52
2022/09/02 03:30:32;;;;;;;;;;;;;;;22.81;48.30;95682.13;10255900;28;2892;-53
2022/09/02 03:35:33;;;;;;;;;;;;;;;22.80;48.06;95680.53;10250225;28;2310;-47
2022/09/02 03:40:34;;;;;;;;;;;;;;;22.79;48.03;95676.34;10265940;28;2851;-51
2022/09/02 03:45:34;;;;;;;;;;;;;;;22.80;47.97;95688.47;10244040;28;2955;-53
2022/09/02 03:50:38;;;;;;;;;;;;;;;22.78;48.11;95677.41;10247896;28;2877;-48
2022/09/02 03:55:39;;;;;;;;;;;;;;;22.78;48.00;95677.41;10246687;28;2888;-49
2022/09/02 04:00:40;;;;;;;;;;;;;;;22.78;48.30;95672.13;10247504;28;2372;-50
2022/09/02 04:05:44;;;;;;;;;;;;;;;22.77;48.18;95663.44;10244730;28;2847;-51
2022/09/02 04:10:44;;;;;;;;;;;;;;;22.76;48.18;95672.41;10244100;28;2855;-47
2022/09/02 04:15:46;;;;;;;;;;;;;;;22.77;48.13;95666.06;10249937;28;2871;-50
2022/09/02 04:20:48;;;;;;;;;;;;;;;22.76;47.90;95677.69;10248750;28;3051;-55
2022/09/02 04:25:48;;;;;;;;;;;;;;;22.75;47.94;95672.72;10245276;28;2270;-51
2022/09/02 04:30:49;;;;;;;;;;;;;;;22.75;47.93;95670.06;10247399;28;2372;-51
2022/09/02 04:35:51;;;;;;;;;;;;;;;22.76;47.97;95666.34;10246267;28;2833;-49
2022/09/02 04:40:51;;;;;;;;;;;;;;;22.79;48.00;95666.56;10242223;28;2823;-52
2022/09/02 04:45:51;;;;;;;;;;;;;;;22.78;47.92;95674.75;10246722;28;2348;-51
2022/09/02 04:50:57;;;;;;;;;;;;;;;22.82;47.90;95678.41;10250377;28;2921;-51
2022/09/02 04:56:02;;;;;;;;;;;;;;;22.81;47.89;95672.34;10247567;28;3037;-54
2022/09/02 05:01:06;;;;;;;;;;;;;;;22.82;48.17;95673.13;10244588;28;2867;-50
2022/09/02 05:06:07;;;;;;;;;;;;;;;22.82;48.21;95673.91;10244429;28;2920;-53
2022/09/02 05:11:09;;;;;;;;;;;;;;;22.81;48.01;95674.19;10246716;28;3173;-53
2022/09/02 05:16:13;;;;;;;;;;;;;;;22.80;48.51;95676.06;10243467;28;2885;-52
2022/09/02 05:21:14;;;;;;;;;;;;;;;22.81;48.18;95671.56;10245247;28;2414;-52
2022/09/02 05:26:14;;;;;;;;;;;;;;;22.81;48.23;95676.84;10245140;28;2356;-53
2022/09/02 05:31:15;;;;;;;;;;;;;;;22.79;48.31;95679.78;10248484;28;2473;-51
2022/09/02 05:36:17;;;;;;;;;;;;;;;22.79;48.13;95684.28;10244979;28;3113;-52
2022/09/02 05:41:21;;;;;;;;;;;;;;;22.80;48.30;95675.25;10241359;28;2325;-51
2022/09/02 05:46:22;;;;;;;;;;;;;;;22.79;47.98;95679.78;10240960;28;2368;-51
2022/09/02 05:51:23;;;;;;;;;;;;;;;22.80;48.36;95686.63;10240930;28;2936;-51
2022/09/02 05:56:26;;;;;;;;;;;;;;;22.80;48.21;95680.53;10243508;28;2893;-55
2022/09/02 06:01:27;;;;;;;;;;;;;;;22.79;48.27;95684.28;10243455;28;2819;-53
2022/09/02 06:06:30;;;;;;;;;;;;;;;22.81;48.55;95682.13;10234521;28;3027;-52
2022/09/02 06:11:31;;;;;;;;;;;;;;;22.80;48.23;95676.06;10259549;28;2799;-51
2022/09/02 06:16:31;;;;;;;;;;;;;;;22.78;48.07;95672.13;10257301;28;2266;-48
2022/09/02 06:21:34;;;;;;;;;;;;;;;22.67;47.15;95668.84;10235124;28;2279;-52
2022/09/02 06:26:35;;;;;;;;;;;;;;;22.59;47.23;95675.59;10251887;28;2922;-49
2022/09/02 06:31:35;;;;;;;;;;;;;;;22.59;47.39;95674.78;10231175;28;2282;-50
2022/09/02 06:36:35;;;;;;;;;;;;;;;22.57;47.48;95667.13;10233305;28;2283;-50
2022/09/02 06:41:37;;;;;;;;;;;;;;;22.58;47.38;95667.97;10229922;28;2889;-51
2022/09/02 06:46:38;;;;;;;;;;;;;;;22.63;47.95;95668.66;10239149;28;2907;-52
2022/09/02 06:51:40;;;;;;;;;;;;;;;22.60;47.54;95660.53;10240093;28;2877;-53
2022/09/02 06:56:41;;;;;;;;;;;;;;;22.58;47.77;95662.66;10244801;28;3021;-53
2022/09/02 07:01:51;;;;;;;;;;;;;;;22.57;47.57;95664.50;10258196;28;2867;-54
2022/09/02 07:06:52;;;;;;;;;;;;;;;22.57;47.55;95669.78;10246224;28;2238;-53
2022/09/02 07:11:55;;;;;;;;;;;;;;;22.59;47.82;95669.50;10243936;28;2333;-52
2022/09/02 07:16:58;;;;;;;;;;;;;;;22.60;47.90;95671.09;10246542;28;3029;-53
2022/09/02 07:21:59;;;;;;;;;;;;;;;22.57;47.60;95677.69;10243703;28;2969;-53
2022/09/02 07:26:59;;;;;;;;;;;;;;;22.59;47.90;95672.16;10242757;28;2878;-51
2022/09/02 07:32:01;;;;;;;;;;;;;;;22.58;47.94;95671.38;10245859;28;2925;-49
2022/09/02 07:37:01;;;;;;;;;;;;;;;22.58;47.73;95660.81;10251952;28;2328;-50
2022/09/02 07:42:01;;;;;;;;;;;;;;;22.59;47.75;95662.38;10242570;28;3108;-48
2022/09/02 07:47:02;;;;;;;;;;;;;;;22.57;47.49;95667.13;10242488;28;2930;-49
2022/09/02 07:52:02;;;;;;;;;;;;;;;22.59;47.57;95662.38;10244086;28;2329;-53
2022/09/02 07:57:02;;;;;;;;;;;;;;;22.62;47.55;95666.31;10241106;28;2314;-51
2022/09/02 08:02:03;;;;;;;;;;;;;;;22.59;47.40;95665.03;10239375;28;2983;-52
2022/09/02 08:07:04;;;;;;;;;;;;;;;22.60;47.34;95665.81;10241322;28;2906;-52
2022/09/02 08:12:05;;;;;;;;;;;;;;;22.61;47.34;95662.88;10233628;28;3201;-50
2022/09/02 08:17:06;;;;;;;;;;;;;;;22.65;47.75;95663.88;10237521;28;3165;-53
2022/09/02 08:22:06;;;;;;;;;;;;;;;22.68;47.69;95662.50;10240174;28;2314;-52
2022/09/02 08:27:07;;;;;;;;;;;;;;;22.69;47.95;95655.38;10241158;28;3218;-52
2022/09/02 08:32:08;;;;;;;;;;;;;;;22.70;47.78;95652.44;10239699;28;3088;-47
2022/09/02 08:37:10;;;;;;;;;;;;;;;22.73;47.85;95649.19;10239442;28;3173;-50
2022/09/02 08:42:19;;;;;;;;;;;;;;;22.73;47.88;95643.91;10237718;28;2259;-47
2022/09/02 08:47:21;;;;;;;;;;;;;;;22.74;48.09;95644.72;10234693;28;3388;-52
2022/09/02 08:52:42;;;;;;;;;;;;;;;22.76;47.72;95647.84;10236736;28;2290;-51
2022/09/02 08:57:44;;;;;;;;;;;;;;;22.75;48.17;95638.38;10240184;28;3333;-54
2022/09/02 09:02:55;;;;;;;;;;;;;;;22.77;48.11;95644.94;10252513;28;3132;-53
2022/09/02 09:08:02;;;;;;;;;;;;;;;22.78;47.99;95637.78;10251196;28;3501;-51
2022/09/02 09:13:07;;;;;;;;;;;;;;;22.80;47.91;95643.53;10234929;28;3252;-53
2022/09/02 09:18:08;;;;;;;;;;;;;;;22.81;48.25;95634.56;10241126;28;3182;-53
2022/09/02 09:23:28;;;;;;;;;;;;;;;22.80;48.22;95641.69;10250732;28;3147;-52
2022/09/02 09:28:28;;;;;;;;;;;;;;;22.81;48.33;95640.63;10240024;28;3229;-53
2022/09/02 09:33:34;;;;;;;;;;;;;;;22.83;48.40;95629.78;10236891;28;3139;-50
2022/09/02 09:38:37;;;;;;;;;;;;;;;22.84;48.22;95624.19;10237987;28;2436;-53
2022/09/02 09:43:37;;;;;;;;;;;;;;;22.87;48.09;95620.19;10232785;28;3208;-51
2022/09/02 09:48:39;;;;;;;;;;;;;;;22.86;48.08;95619.38;10238181;28;3151;-50
2022/09/02 09:53:40;;;;;;;;;;;;;;;22.87;48.22;95613.03;10245388;28;3171;-49
2022/09/02 09:58:45;;;;;;;;;;;;;;;22.91;48.21;95621.16;10250460;28;3211;-50
2022/09/02 10:04:02;;;;;;;;;;;;;;;22.92;48.12;95626.16;10235814;28;3223;-52
2022/09/02 10:09:05;;;;;;;;;;;;;;;22.93;48.25;95627.75;10252681;28;3123;-50
2022/09/02 10:14:07;;;;;;;;;;;;;;;22.93;47.99;95611.88;10238411;28;3308;-52
2022/09/02 10:19:14;;;;;;;;;;;;;;;22.96;48.41;95615.78;10250624;28;3208;-48
2022/09/02 10:24:29;;;;;;;;;;;;;;;22.97;48.33;95618.16;10247691;28;2452;-52
2022/09/02 10:29:29;;;;;;;;;;;;;;;22.97;48.23;95614.72;10244060;28;2321;-53
2022/09/02 10:34:30;;;;;;;;;;;;;;;22.97;48.32;95612.06;10243457;28;3340;-51
2022/09/02 10:39:38;;;;;;;;;;;;;;;22.98;48.39;95613.66;10231562;28;3135;-47
2022/09/02 10:44:43;;;;;;;;;;;;;;;22.97;48.49;95602.28;10235261;28;3245;-48
2022/09/02 10:49:53;;;;;;;;;;;;;;;23.00;48.52;95608.84;10249415;28;3202;-52
2022/09/02 10:55:12;;;;;;;;;;;;;;;23.01;48.37;95602.47;10250091;28;3351;-52
2022/09/02 11:00:13;;;;;;;;;;;;;;;22.98;48.57;95587.22;10253067;28;3127;-46
2022/09/02 11:05:15;;;;;;;;;;;;;;;23.01;48.58;95586.63;10239632;28;2396;-51
2022/09/02 11:10:17;;;;;;;;;;;;;;;23.03;48.34;95573.88;10255029;28;3140;-49
2022/09/02 11:15:19;;;;;;;;;;;;;;;23.01;48.43;95576.03;10235296;28;3362;-51
2022/09/02 11:20:29;;;;;;;;;;;;;;;23.02;48.49;95574.97;10249977;28;2285;-51
2022/09/02 11:25:43;;;;;;;;;;;;;;;23.03;48.29;95573.88;10244867;28;2397;-50
2022/09/02 11:30:48;;;;;;;;;;;;;;;23.04;48.31;95575.47;10238990;28;3159;-51
2022/09/02 11:35:49;;;;;;;;;;;;;;;23.04;48.67;95567.53;10251190;28;3083;-53
2022/09/02 11:40:56;;;;;;;;;;;;;;;23.05;48.45;95571.75;10249279;28;3202;-50
2022/09/02 11:46:25;;;;;;;;;;;;;;;23.06;48.45;95566.16;10240064;28;3195;-51
2022/09/02 11:51:35;;;;;;;;;;;;;;;23.07;48.33;95570.38;10230851;28;3351;-51
2022/09/02 11:56:38;;;;;;;;;;;;;;;23.06;48.54;95565.38;10239856;28;3131;-49
2022/09/02 12:01:39;;;;;;;;;;;;;;;23.05;48.66;95561.16;10245368;28;3316;-50
2022/09/02 12:06:58;;;;;;;;;;;;;;;23.06;48.59;95560.09;10244301;28;3503;-52
2022/09/02 12:12:00;;;;;;;;;;;;;;;23.06;48.47;95554.81;10243983;28;3503;-52
2022/09/02 12:17:07;;;;;;;;;;;;;;;23.06;48.40;95554.81;10259299;28;2316;-51
2022/09/02 12:22:14;;;;;;;;;;;;;;;23.07;48.52;95553.72;10244609;28;2257;-51
2022/09/02 12:27:35;;;;;;;;;;;;;;;23.08;48.61;95556.06;10239998;28;3421;-51
2022/09/02 12:32:44;;;;;;;;;;;;;;;23.08;48.42;95558.72;10241250;28;3200;-51
2022/09/02 12:37:48;;;;;;;;;;;;;;;23.11;48.38;95552.84;10240745;28;2316;-52
2022/09/02 12:42:49;;;;;;;;;;;;;;;23.11;48.65;95544.91;10240217;28;3202;-52
2022/09/02 12:47:52;;;;;;;;;;;;;;;23.11;48.76;95534.34;10253346;28;3248;-52
2022/09/02 12:53:06;;;;;;;;;;;;;;;23.10;48.63;95535.41;10246409;28;3164;-50
2022/09/02 12:58:07;;;;;;;;;;;;;;;23.10;48.48;95538.03;10243267;28;3170;-52
2022/09/02 13:03:12;;;;;;;;;;;;;;;23.11;48.64;95530.91;10238014;28;3169;-47
2022/09/02 13:08:13;;;;;;;;;;;;;;;23.11;48.54;95541.47;10238399;28;3532;-48
2022/09/02 13:13:13;;;;;;;;;;;;;;;23.12;48.54;95533.25;10245037;28;3190;-47
2022/09/02 13:18:13;;;;;;;;;;;;;;;23.12;48.48;95527.97;10250340;28;2512;-49
2022/09/02 13:23:14;;;;;;;;;;;;;;;23.13;48.50;95523.47;10243665;28;3126;-51
2022/09/02 13:28:33;;;;;;;;;;;;;;;23.15;48.32;95518.66;10249643;28;2320;-51
2022/09/02 13:33:33;;;;;;;;;;;;;;;23.14;48.53;95517.88;10255800;28;2413;-51
2022/09/02 13:38:35;;;;;;;;;;;;;;;23.14;48.55;95519.75;10242404;28;3134;-50
2022/09/02 13:43:35;;;;;;;;;;;;;;;23.13;48.63;95508.38;10238794;28;3269;-47
2022/09/02 13:48:36;;;;;;;;;;;;;;;23.15;48.46;95508.09;10238049;28;2313;-47
2022/09/02 13:53:46;;;;;;;;;;;;;;;23.16;48.55;95509.66;10234515;28;2266;-49
2022/09/02 13:58:50;;;;;;;;;;;;;;;23.15;48.50;95513.38;10254177;28;3163;-51
2022/09/02 14:03:52;;;;;;;;;;;;;;;23.15;48.50;95518.66;10248863;28;3195;-50
2022/09/02 14:08:54;;;;;;;;;;;;;;;23.14;48.62;95509.94;10242366;28;3170;-51
2022/09/02 14:13:55;;;;;;;;;;;;;;;23.14;48.54;95495.94;10250504;28;2370;-50
2022/09/02 14:19:22;;;;;;;;;;;;;;;23.14;48.62;95494.06;10239996;28;3200;-50
2022/09/02 14:24:23;;;;;;;;;;;;;;;23.12;48.73;95492.81;10232379;28;2317;-52
2022/09/02 14:29:23;;;;;;;;;;;;;;;23.13;48.70;95486.44;10239465;28;3162;-47
2022/09/02 14:34:38;;;;;;;;;;;;;;;23.13;46.78;95486.44;10250978;28;2389;-52
2022/09/02 14:39:59;;;;;;;;;;;;;;;23.00;45.58;95479.31;10237237;28;2405;-52
2022/09/02 14:45:02;;;;;;;;;;;;;;;23.00;45.62;95474.03;10221952;28;3173;-49
2022/09/02 14:50:11;;;;;;;;;;;;;;;22.95;45.01;95476.78;10243540;28;3339;-49
2022/09/02 14:55:30;;;;;;;;;;;;;;;22.93;45.57;95469.13;10258278;28;3226;-49
2022/09/02 15:00:31;;;;;;;;;;;;;;;22.98;46.12;95468.25;10244677;28;2277;-50
2022/09/02 15:05:32;;;;;;;;;;;;;;;22.97;45.48;95461.41;10243752;28;2381;-51
2022/09/02 15:10:32;;;;;;;;;;;;;;;22.97;46.06;95450.81;10240750;28;3215;-51
2022/09/02 15:15:32;;;;;;;;;;;;;;;22.98;45.88;95455.03;10265980;28;3203;-48
2022/09/02 15:20:34;;;;;;;;;;;;;;;22.98;45.25;95447.13;10252351;28;3138;-51
2022/09/02 15:25:34;;;;;;;;;;;;;;;22.95;45.16;95450.34;10250694;28;2291;-52
2022/09/02 15:30:36;;;;;;;;;;;;;;;22.93;45.09;95448.00;10249298;28;3120;-50
2022/09/02 15:35:36;;;;;;;;;;;;;;;22.96;45.32;95452.69;10252199;28;3159;-49
2022/09/02 15:40:36;;;;;;;;;;;;;;;22.95;45.59;95455.63;10250784;28;3164;-52
2022/09/02 15:45:38;;;;;;;;;;;;;;;22.93;44.53;95463.06;10246695;28;3178;-48
2022/09/02 15:50:39;;;;;;;;;;;;;;;22.91;44.91;95452.00;10259476;28;3136;-46
2022/09/02 15:55:39;;;;;;;;;;;;;;;22.89;43.55;95446.22;10245675;28;3484;-52
2022/09/02 16:00:40;;;;;;;;;;;;;;;22.84;43.35;95459.53;10249568;28;3162;-47
2022/09/02 16:05:41;;;;;;;;;;;;;;;22.81;43.07;95437.16;10249733;28;3182;-50
2022/09/02 16:10:43;;;;;;;;;;;;;;;22.80;43.19;95448.00;10246472;28;3118;-47
2022/09/02 16:15:44;;;;;;;;;;;;;;;22.79;43.42;95426.09;10248533;28;3133;-49
2022/09/02 16:20:44;;;;;;;;;;;;;;;22.78;43.13;95429.78;10249523;28;3195;-51
2022/09/02 16:25:44;;;;;;;;;;;;;;;22.77;42.66;95427.44;10253975;28;3168;-47
2022/09/02 16:30:45;;;;;;;;;;;;;;;22.75;42.61;95422.44;10245965;28;2345;-53
2022/09/02 16:35:45;;;;;;;;;;;;;;;22.75;43.12;95434.91;10255659;28;3268;-53
2022/09/02 16:40:52;;;;;;;;;;;;;;;22.73;43.03;95437.81;10244536;28;3169;-51
2022/09/02 16:45:52;;;;;;;;;;;;;;;22.71;42.61;95434.69;10229918;28;3273;-49
2022/09/02 16:50:53;;;;;;;;;;;;;;;22.72;42.04;95440.75;10245782;28;3122;-50
2022/09/02 16:55:53;;;;;;;;;;;;;;;22.68;41.93;95437.94;10244487;28;3192;-48
2022/09/02 17:00:53;;;;;;;;;;;;;;;22.67;42.11;95427.66;10245271;28;2349;-49
2022/09/02 17:05:54;;;;;;;;;;;;;;;22.65;41.84;95426.06;10245037;28;2375;-50
2022/09/02 17:11:09;;;;;;;;;;;;;;;22.64;41.72;95429.03;10249273;28;2336;-48
2022/09/02 17:16:11;;;;;;;;;;;;;;;22.63;42.25;95417.66;10243694;28;2644;-53
2022/09/02 17:21:18;;;;;;;;;;;;;;;22.63;41.51;95420.31;10245486;28;3166;-49
2022/09/02 17:26:18;;;;;;;;;;;;;;;22.59;41.35;95424.63;10246254;28;2299;-50
2022/09/02 17:31:29;;;;;;;;;;;;;;;22.60;41.19;95418.28;10259008;28;3171;-52
2022/09/02 17:36:29;;;;;;;;;;;;;;;22.59;41.67;95416.69;10243634;28;3142;-48
2022/09/02 17:46:48;;;;;;;;;;;;;;;22.60;41.60;95423.56;10244038;28;2504;-49
2022/09/02 17:51:49;;;;;;;;;;;;;;;22.60;41.73;95422.75;10237256;28;3216;-49
2022/09/02 17:56:55;;;;;;;;;;;;;;;22.55;41.30;95420.97;10243321;28;3277;-49
2022/09/02 18:01:55;;;;;;;;;;;;;;;22.57;41.61;95428.59;10242353;28;2394;-51
2022/09/02 18:06:56;;;;;;;;;;;;;;;22.55;41.49;95431.53;10240966;28;2368;-49
2022/09/02 18:11:56;;;;;;;;;;;;;;;22.54;41.46;95431.84;10257528;28;3162;-48
2022/09/02 18:17:03;;;;;;;;;;;;;;;22.53;41.35;95419.69;10244257;28;3235;-48
2022/09/02 18:22:06;;;;;;;;;;;;;;;22.53;41.92;95431.03;10236717;28;3140;-47
2022/09/02 18:27:29;;;;;;;;;;;;;;;22.53;41.56;95432.91;10241043;28;2318;-51
2022/09/02 18:32:32;;;;;;;;;;;;;;;22.51;41.51;95441.13;10254883;28;3213;-52
2022/09/02 18:37:45;;;;;;;;;;;;;;;22.51;41.19;95462.25;10247567;28;3185;-50
2022/09/02 18:42:45;;;;;;;;;;;;;;;22.64;42.67;95461.50;10239449;28;3142;-57
2022/09/02 18:48:04;;;;;;;;;;;;;;;22.81;42.28;95460.94;10243261;28;3321;-52
2022/09/02 18:53:05;;;;;;;;;;;;;;;22.96;42.42;95442.09;10245780;28;3162;-48
2022/09/02 18:58:07;;;;;;;;;;;;;;;23.08;42.61;95441.63;10268107;28;2313;-50
2022/09/02 19:03:07;;;;;;;;;;;;;;;23.13;42.52;95457.34;10248637;28;3288;-47
2022/09/02 19:13:28;;;;;;;;;;;;;;;23.10;43.11;95473.84;10261521;28;3369;-49
2022/09/02 19:18:29;;;;;;;;;;;;;;;23.08;43.07;95486.56;10252350;28;3158;-55
2022/09/02 19:23:29;;;;;;;;;;;;;;;23.05;43.17;95487.13;10257683;28;3234;-49
2022/09/02 19:28:29;;;;;;;;;;;;;;;23.03;43.45;95479.50;10249028;28;3207;-48
2022/09/02 19:33:30;;;;;;;;;;;;;;;23.02;43.53;95480.56;10248910;28;2279;-51
2022/09/02 19:38:30;;;;;;;;;;;;;;;23.01;43.64;95470.31;10251449;28;3178;-51
2022/09/02 19:43:31;;;;;;;;;;;;;;;22.99;43.88;95454.75;10246471;28;3322;-48
2022/09/02 19:48:31;;;;;;;;;;;;;;;22.98;43.78;95461.09;10248069;28;3217;-51
2022/09/02 19:53:35;;;;;;;;;;;;;;;22.98;43.98;95463.75;10247163;28;3178;-51
2022/09/02 19:58:36;;;;;;;;;;;;;;;22.97;43.96;95445.53;10247212;28;3139;-52
2022/09/02 20:03:36;;;;;;;;;;;;;;;22.97;44.12;95453.47;10249568;28;3167;-51
2022/09/02 20:08:37;;;;;;;;;;;;;;;22.96;43.91;95460.59;10250911;28;3169;-52
2022/09/02 20:13:37;;;;;;;;;;;;;;;22.97;44.22;95469.31;10246464;28;3126;-50
2022/09/02 20:18:38;;;;;;;;;;;;;;;22.96;44.24;95473.81;10249068;28;3220;-50
2022/09/02 20:23:39;;;;;;;;;;;;;;;22.97;44.26;95477.25;10260180;28;3193;-54
2022/09/02 20:28:42;;;;;;;;;;;;;;;22.97;44.49;95469.31;10247897;28;2429;-48
2022/09/02 20:33:46;;;;;;;;;;;;;;;22.97;44.29;95458.75;10245289;28;2381;-48
2022/09/02 20:38:47;;;;;;;;;;;;;;;22.97;44.37;95458.75;10248136;28;3151;-50
2022/09/02 20:43:59;;;;;;;;;;;;;;;22.97;44.64;95453.47;10249897;28;3199;-49
2022/09/02 20:49:00;;;;;;;;;;;;;;;22.96;44.46;95463.25;10255904;28;3205;-48
2022/09/02 20:54:00;;;;;;;;;;;;;;;22.96;44.55;95465.91;10258196;28;3128;-50
2022/09/02 20:59:19;;;;;;;;;;;;;;;22.97;44.42;95461.41;10260984;28;3178;-46
2022/09/02 21:04:25;;;;;;;;;;;;;;;22.97;44.61;95456.13;10240889;28;3946;-48
2022/09/02 21:09:32;;;;;;;;;;;;;;;22.97;44.78;95456.13;10245675;28;2308;-49
2022/09/02 21:14:34;;;;;;;;;;;;;;;22.97;44.66;95464.03;10253270;28;3192;-48
2022/09/02 21:19:35;;;;;;;;;;;;;;;22.97;44.57;95450.81;10263868;28;3179;-50
2022/09/02 21:24:41;;;;;;;;;;;;;;;22.97;44.63;95448.19;10247463;28;2408;-48
2022/09/02 21:29:44;;;;;;;;;;;;;;;22.96;44.85;95457.97;10261755;28;3178;-51
2022/09/02 21:34:46;;;;;;;;;;;;;;;22.96;44.73;95457.19;10244617;28;3329;-50
2022/09/02 21:39:57;;;;;;;;;;;;;;;22.97;44.76;95454.25;10259638;28;3251;-50
2022/09/02 21:44:57;;;;;;;;;;;;;;;22.96;44.66;95457.97;10258166;28;3127;-47
2022/09/02 21:49:57;;;;;;;;;;;;;;;22.96;44.70;95457.97;10243410;28;2341;-48
2022/09/02 21:55:09;;;;;;;;;;;;;;;22.97;44.78;95453.47;10239999;28;3174;-50
2022/09/02 22:00:10;;;;;;;;;;;;;;;22.96;45.01;95457.97;10238180;28;3156;-48
2022/09/02 22:05:29;;;;;;;;;;;;;;;22.96;45.08;95451.88;10249782;28;2309;-51
2022/09/02 22:10:35;;;;;;;;;;;;;;;22.96;44.71;95457.19;10246377;28;2361;-49
2022/09/02 22:15:58;;;;;;;;;;;;;;;22.96;45.15;95454.53;10250220;28;3154;-49
2022/09/02 22:21:01;;;;;;;;;;;;;;;22.96;45.11;95457.19;10258803;28;2494;-51
2022/09/02 22:26:20;;;;;;;;;;;;;;;22.95;44.95;95453.78;10251881;28;3191;-51
2022/09/02 22:31:24;;;;;;;;;;;;;;;22.96;44.81;95459.81;10247026;28;3259;-49
2022/09/02 22:36:47;;;;;;;;;;;;;;;22.95;45.02;95459.06;10257502;28;3365;-51
2022/09/02 22:41:49;;;;;;;;;;;;;;;22.96;44.94;95443.97;10239779;28;2270;-49
2022/09/02 22:57:51;;;;;;;;;;;;;;;22.90;44.89;95448.56;10237883;28;3181;-46
2022/09/02 23:02:51;;;;;;;;;;;;;;;22.85;44.76;95456.63;10240707;28;3202;-49
2022/09/02 23:07:51;;;;;;;;;;;;;;;22.83;45.15;95453.50;10238832;28;3165;-48
2022/09/02 23:12:54;;;;;;;;;;;;;;;22.82;44.40;95453.75;10238129;28;3095;-50
2022/09/02 23:17:57;;;;;;;;;;;;;;;22.78;44.66;95442.22;10254148;28;3314;-48
2022/09/02 23:23:03;;;;;;;;;;;;;;;22.78;44.77;95452.78;10240594;28;2406;-48
2022/09/02 23:28:32;;;;;;;;;;;;;;;22.77;44.56;95444.09;10251112;28;3318;-47
2022/09/02 23:33:51;;;;;;;;;;;;;;;22.76;44.62;95436.44;10231318;28;2274;-46
2022/09/02 23:38:55;;;;;;;;;;;;;;;22.74;44.25;95426.19;10242529;28;3256;-46
2022/09/02 23:43:55;;;;;;;;;;;;;;;22.73;44.36;95424.59;10242555;28;3237;-50
2022/09/02 23:49:06;;;;;;;;;;;;;;;22.71;44.19;95431.28;10266712;28;2462;-52
2022/09/02 23:54:25;;;;;;;;;;;;;;;22.70;44.11;95437.63;10244792;28;3246;-50
2022/09/02 23:59:25;;;;;;;;;;;;;;;22.70;44.38;95432.34;10246570;28;2417;-46
